Time;durP1;ratioP1;P1;durP2;ratioP2;P2;SDS_P1;SDS_P2;PMS_P1;PMS_P2;Temp;Humidity;BMP_temperature;BMP_pressure;BME280_temperature;BME280_humidity;BME280_pressure;Samples;Min_cycle;Max_cycle;Signal;HPM_P1;HPM_P2
2021/05/06 00:35:26;;;;;;;2.98;1.15;;;;;;;11.17;62.91;98321.09;4506264;77;28574;-80
2021/05/06 01:13:14;;;;;;;2.22;1.25;;;;;;;10.79;61.45;98365.82;4317965;81;28629;-80
2021/05/06 01:19:14;;;;;;;3.05;1.40;;;;;;;10.71;61.67;98387.23;4264449;81;28556;-79
2021/05/06 01:25:17;;;;;;;1.90;1.10;;;;;;;10.42;62.47;98390.88;4265218;81;28662;-81
2021/05/06 01:31:22;;;;;;;4.12;1.15;;;;;;;10.41;63.05;98392.42;4329768;81;28576;-81
2021/05/06 01:37:32;;;;;;;2.40;1.30;;;;;;;10.61;61.52;98399.98;4208281;82;28604;-81
2021/05/06 01:43:43;;;;;;;2.17;1.10;;;;;;;10.24;63.36;98405.87;4205222;82;28644;-78
2021/05/06 02:02:02;;;;;;;4.03;1.30;;;;;;;10.28;62.99;98399.77;4225693;83;28574;-79
2021/05/06 02:08:05;;;;;;;2.70;1.10;;;;;;;10.33;63.20;98393.11;4297625;82;28644;-80
2021/05/06 02:14:12;;;;;;;2.45;1.05;;;;;;;10.48;62.20;98397.66;4244589;83;28714;-80
2021/05/06 02:20:17;;;;;;;2.47;1.10;;;;;;;10.40;64.40;98402.34;4288341;82;28582;-80
2021/05/06 02:26:19;;;;;;;1.75;1.07;;;;;;;10.30;65.01;98416.45;4275408;81;28564;-80
2021/05/06 02:32:21;;;;;;;2.95;1.30;;;;;;;10.48;63.09;98417.81;4306320;81;28575;-79
2021/05/06 02:38:24;;;;;;;2.22;1.10;;;;;;;10.33;64.64;98411.12;4347258;81;28633;-79
2021/05/06 02:44:26;;;;;;;1.70;1.00;;;;;;;10.15;65.63;98412.98;4418371;80;28604;-79
2021/05/06 02:50:29;;;;;;;3.02;1.17;;;;;;;10.13;65.17;98417.79;4217111;83;28662;-79
2021/05/06 03:02:49;;;;;;;1.67;1.00;;;;;;;10.04;66.17;98415.22;4404684;79;84792;-80
2021/05/06 03:08:53;;;;;;;2.35;1.35;;;;;;;9.89;66.23;98423.31;4306624;81;28586;-79
2021/05/06 03:27:16;;;;;;;2.70;1.00;;;;;;;9.81;65.23;98444.34;4301669;80;28552;-80
2021/05/06 04:18:04;;;;;;;2.17;1.30;;;;;;;11.09;56.85;98536.23;4347324;80;28617;-79
2021/05/06 04:36:55;;;;;;;2.08;1.20;;;;;;;11.44;56.14;98559.31;4315139;81;28583;-79
2021/05/06 05:08:07;;;;;;;2.62;1.42;;;;;;;11.53;56.65;98584.47;4229015;84;28581;-80
2021/05/06 05:20:47;;;;;;;3.85;1.47;;;;;;;11.93;54.61;98581.19;4358769;81;28595;-82
2021/05/06 05:26:44;;;;;;;2.90;1.40;;;;;;;12.02;53.28;98595.02;4333757;80;28631;-79
2021/05/06 05:32:46;;;;;;;3.95;1.60;;;;;;;11.79;53.15;98595.04;4318919;80;28595;-79
2021/05/06 05:38:58;;;;;;;3.60;1.60;;;;;;;12.39;52.43;98603.83;4318141;81;28584;-80
2021/05/06 05:57:33;;;;;;;3.98;1.27;;;;;;;12.55;49.92;98608.84;4312158;81;28599;-81
2021/05/06 06:03:35;;;;;;;3.17;1.40;;;;;;;12.63;47.64;98609.73;4298885;81;28587;-80
2021/05/06 06:09:37;;;;;;;4.03;1.20;;;;;;;12.71;47.39;98612.50;4329058;81;28608;-81
2021/05/06 06:21:47;;;;;;;3.27;1.50;;;;;;;13.07;46.46;98602.02;4300907;81;28597;-81
2021/05/06 06:27:46;;;;;;;2.42;1.30;;;;;;;12.96;47.74;98598.94;4315155;81;28565;-82
2021/05/06 06:33:49;;;;;;;2.60;1.30;;;;;;;13.02;46.24;98601.17;4295557;81;28605;-81
2021/05/06 06:39:51;;;;;;;2.47;1.62;;;;;;;13.66;46.34;98606.20;4314393;81;28561;-82
2021/05/06 06:45:53;;;;;;;1.82;1.10;;;;;;;13.34;47.18;98607.06;4305289;81;28599;-82
2021/05/06 06:51:55;;;;;;;3.02;1.47;;;;;;;13.59;46.63;98604.27;4333550;81;28641;-81
2021/05/06 06:58:12;;;;;;;2.65;1.22;;;;;;;13.50;43.86;98608.00;4321709;81;28569;-81
2021/05/06 07:04:14;;;;;;;2.35;1.10;;;;;;;13.41;44.12;98608.19;4296578;82;28677;-81
2021/05/06 07:10:16;;;;;;;2.62;1.10;;;;;;;14.25;43.50;98601.55;4305017;82;28592;-81
2021/05/06 07:16:18;;;;;;;3.12;1.27;;;;;;;14.59;41.83;98606.52;4316805;80;28655;-81
2021/05/06 07:22:21;;;;;;;3.98;1.37;;;;;;;14.12;41.47;98609.64;4306719;80;28583;-81
2021/05/06 07:28:34;;;;;;;1.90;0.90;;;;;;;14.29;40.81;98609.42;4313660;82;28569;-81
2021/05/06 07:34:38;;;;;;;2.25;0.98;;;;;;;15.17;39.95;98587.87;4229480;83;28579;-81
2021/05/06 07:40:43;;;;;;;3.58;0.90;;;;;;;15.10;39.67;98587.88;4173168;83;28567;-81
2021/05/06 07:46:46;;;;;;;2.10;1.00;;;;;;;15.39;39.83;98591.37;4195653;82;28624;-81
2021/05/06 07:52:54;;;;;;;3.75;0.90;;;;;;;14.87;40.28;98583.30;4247999;82;28547;-81
2021/05/06 07:58:57;;;;;;;2.10;0.85;;;;;;;15.21;40.31;98573.80;4254800;82;28698;-81
2021/05/06 08:04:59;;;;;;;2.00;0.60;;;;;;;15.19;37.44;98572.71;4207718;83;28635;-82
2021/05/06 08:11:02;;;;;;;1.22;0.65;;;;;;;15.75;37.50;98574.47;4212933;83;28664;-82
2021/05/06 08:17:05;;;;;;;3.45;1.07;;;;;;;15.96;37.72;98577.13;4188036;84;28683;-82
2021/05/06 08:23:11;;;;;;;2.90;0.95;;;;;;;16.05;37.00;98572.48;4191545;83;28657;-82
2021/05/06 08:29:13;;;;;;;2.08;1.00;;;;;;;16.30;35.75;98577.76;4221492;84;28704;-81
2021/05/06 08:35:17;;;;;;;2.10;1.02;;;;;;;16.94;35.58;98570.79;4208530;83;28605;-81
2021/05/06 08:41:22;;;;;;;1.87;0.90;;;;;;;16.99;34.43;98574.83;4207855;83;29003;-81
2021/05/06 08:47:25;;;;;;;2.17;1.00;;;;;;;16.47;34.10;98573.87;4341606;81;28551;-83
2021/05/06 08:53:28;;;;;;;2.55;0.90;;;;;;;16.72;35.03;98572.88;4328179;80;28592;-83
2021/05/06 08:59:31;;;;;;;1.65;0.88;;;;;;;16.51;34.59;98591.76;4326335;80;28579;-82
2021/05/06 09:05:35;;;;;;;2.52;1.00;;;;;;;16.41;34.29;98569.55;4180579;84;28609;-82
2021/05/06 09:11:38;;;;;;;3.35;1.35;;;;;;;16.92;34.50;98572.45;4168113;84;28593;-81
2021/05/06 09:17:40;;;;;;;2.67;0.98;;;;;;;16.96;35.04;98562.63;4247646;81;28585;-82
2021/05/06 09:23:43;;;;;;;3.95;0.90;;;;;;;17.14;34.30;98555.70;4248190;83;28634;-80
2021/05/06 09:29:47;;;;;;;3.35;1.10;;;;;;;15.69;33.33;98562.02;4216439;84;28580;-80
2021/05/06 09:35:49;;;;;;;2.27;0.93;;;;;;;16.43;33.37;98560.05;4242728;83;28660;-83
2021/05/06 09:42:05;;;;;;;2.12;0.82;;;;;;;17.25;34.21;98546.91;4236315;83;28632;-87
2021/05/06 09:48:13;;;;;;;2.62;0.72;;;;;;;17.29;33.43;98551.22;4249013;82;28630;-86
2021/05/06 09:54:28;;;;;;;1.07;0.70;;;;;;;17.64;32.09;98536.14;4243613;82;28687;-86
2021/05/06 10:00:37;;;;;;;1.87;0.90;;;;;;;17.34;31.02;98539.47;4268504;82;28589;-86
2021/05/06 10:06:40;;;;;;;1.90;0.80;;;;;;;18.16;31.24;98537.69;4272719;82;28653;-86
2021/05/06 10:12:42;;;;;;;1.87;0.60;;;;;;;18.26;30.94;98539.44;4257489;82;28613;-86
2021/05/06 10:18:45;;;;;;;0.80;0.55;;;;;;;18.61;31.74;98544.64;4269414;82;28611;-86
2021/05/06 10:24:50;;;;;;;1.52;0.62;;;;;;;18.22;31.29;98541.97;4262365;82;28706;-87
2021/05/06 10:30:53;;;;;;;1.00;0.60;;;;;;;18.90;30.49;98551.80;4266978;82;28638;-86
2021/05/06 10:36:55;;;;;;;2.22;0.80;;;;;;;18.48;31.05;98566.61;4255225;82;28624;-86
2021/05/06 10:43:29;;;;;;;1.77;0.50;;;;;;;18.23;29.10;98559.91;4288578;82;28574;-87
2021/05/06 10:49:42;;;;;;;1.82;1.05;;;;;;;19.11;30.56;98554.20;4314239;81;28619;-87
2021/05/06 10:55:53;;;;;;;2.00;0.70;;;;;;;19.33;30.08;98572.05;4308812;81;28589;-88
2021/05/06 11:01:57;;;;;;;3.08;0.82;;;;;;;19.39;29.14;98565.95;4346525;81;28596;-88
2021/05/06 11:08:20;;;;;;;2.67;0.90;;;;;;;19.67;29.70;98566.51;4248183;82;28601;-88
2021/05/06 11:14:22;;;;;;;3.02;0.82;;;;;;;19.78;30.28;98559.19;4219396;84;28604;-84
2021/05/06 11:20:31;;;;;;;2.10;0.90;;;;;;;20.18;29.58;98560.02;4207141;84;28686;-83
2021/05/06 11:26:33;;;;;;;1.25;0.80;;;;;;;19.44;28.66;98556.33;4312123;81;29038;-83
2021/05/06 11:32:35;;;;;;;1.67;0.70;;;;;;;19.30;29.89;98556.84;4320038;81;28587;-83
2021/05/06 11:38:43;;;;;;;3.45;0.90;;;;;;;19.74;28.85;98552.74;4326662;81;28624;-83
2021/05/06 11:45:08;;;;;;;2.22;0.82;;;;;;;19.80;28.60;98542.53;4320256;81;28965;-82
2021/05/06 11:51:27;;;;;;;1.42;0.80;;;;;;;19.75;29.13;98545.35;4334198;81;28609;-82
2021/05/06 11:57:29;;;;;;;2.02;0.82;;;;;;;20.42;29.65;98535.75;4174830;84;28559;-83
2021/05/06 12:03:37;;;;;;;1.55;0.93;;;;;;;20.32;29.33;98527.80;4216355;84;28655;-83
2021/05/06 12:09:41;;;;;;;2.17;0.88;;;;;;;20.75;28.19;98516.38;4243762;83;28584;-83
2021/05/06 12:15:43;;;;;;;3.30;0.95;;;;;;;20.54;28.68;98516.06;4260870;83;28630;-82
2021/05/06 12:21:53;;;;;;;2.65;0.90;;;;;;;20.43;29.94;98503.78;4257194;83;28734;-83
2021/05/06 12:27:56;;;;;;;2.67;1.00;;;;;;;20.38;29.53;98512.11;4246270;83;28661;-83
2021/05/06 12:33:58;;;;;;;2.58;1.05;;;;;;;19.88;29.57;98507.70;4262417;83;28688;-82
2021/05/06 12:40:03;;;;;;;1.75;0.80;;;;;;;19.92;31.65;98511.45;4243776;83;28632;-84
2021/05/06 12:46:09;;;;;;;6.20;1.02;;;;;;;19.97;33.61;98495.55;4259948;83;28938;-83
2021/05/06 12:52:37;;;;;;;2.08;0.90;;;;;;;20.08;32.49;98488.50;4260586;82;28643;-82
2021/05/06 12:58:39;;;;;;;5.53;1.15;;;;;;;20.11;32.35;98470.95;4269372;82;28580;-82
2021/05/06 13:04:51;;;;;;;2.00;0.90;;;;;;;19.94;32.76;98471.59;4255816;82;28593;-83
2021/05/06 13:10:59;;;;;;;2.80;0.80;;;;;;;20.18;32.27;98459.61;4260907;82;28645;-82
2021/05/06 13:17:01;;;;;;;4.33;0.98;;;;;;;19.21;32.15;98451.84;4264095;82;28570;-85
2021/05/06 13:23:13;;;;;;;2.30;0.80;;;;;;;19.14;32.47;98466.41;4282087;82;28595;-84
2021/05/06 13:29:19;;;;;;;3.65;0.80;;;;;;;18.38;32.47;98458.73;4330587;80;28581;-83
2021/05/06 13:35:21;;;;;;;2.70;0.80;;;;;;;17.95;34.60;98473.20;4332516;81;28654;-84
2021/05/06 13:41:44;;;;;;;2.62;0.93;;;;;;;17.77;34.39;98467.48;4323491;81;28599;-84
2021/05/06 13:47:50;;;;;;;4.08;0.88;;;;;;;18.38;33.60;98469.61;4279338;81;28605;-84
2021/05/06 13:53:53;;;;;;;1.45;0.70;;;;;;;19.24;33.03;98444.41;4191642;84;28685;-84
2021/05/06 13:59:55;;;;;;;2.12;0.88;;;;;;;19.66;32.09;98444.38;4190966;83;28683;-85
2021/05/06 14:05:57;;;;;;;3.72;0.85;;;;;;;19.67;31.28;98429.63;4194727;84;28571;-86
2021/05/06 14:11:59;;;;;;;2.20;0.85;;;;;;;19.31;31.12;98429.83;4201344;83;28624;-87
2021/05/06 14:18:04;;;;;;;1.45;0.90;;;;;;;19.08;30.35;98435.19;4213697;84;28601;-85
2021/05/06 14:24:10;;;;;;;2.65;0.88;;;;;;;19.29;30.34;98427.15;4200879;84;28607;-86
2021/05/06 14:30:13;;;;;;;1.55;0.95;;;;;;;19.43;29.62;98412.14;4195371;84;28603;-84
2021/05/06 14:36:17;;;;;;;2.95;1.02;;;;;;;19.03;30.14;98404.52;4198185;84;28682;-84
2021/05/06 14:42:20;;;;;;;1.90;0.98;;;;;;;19.19;30.29;98407.17;4194672;84;28639;-83
2021/05/06 14:48:23;;;;;;;2.45;1.15;;;;;;;19.62;30.58;98419.64;4175670;84;28651;-84
2021/05/06 14:54:26;;;;;;;3.10;0.90;;;;;;;19.31;30.75;98414.02;4183034;84;28570;-85
2021/05/06 15:00:32;;;;;;;2.15;0.78;;;;;;;18.62;33.89;98418.30;4188241;84;28628;-82
2021/05/06 15:06:36;;;;;;;2.15;1.00;;;;;;;19.62;33.73;98407.91;4190936;84;28575;-85
2021/05/06 15:12:46;;;;;;;2.50;0.90;;;;;;;19.05;32.66;98392.19;4184228;84;28656;-84
2021/05/06 15:18:48;;;;;;;2.02;0.90;;;;;;;19.03;32.92;98384.09;4242843;83;28667;-84
2021/05/06 15:24:51;;;;;;;3.80;0.90;;;;;;;18.76;33.48;98385.66;4216947;82;28584;-83
2021/05/06 15:30:55;;;;;;;3.65;1.00;;;;;;;18.79;33.34;98378.23;4212138;82;28568;-84
2021/05/06 15:36:59;;;;;;;3.40;0.82;;;;;;;19.00;33.09;98362.34;4181551;84;28555;-86
2021/05/06 15:43:02;;;;;;;1.77;0.80;;;;;;;18.72;33.50;98360.16;4193303;84;28681;-85
2021/05/06 15:49:07;;;;;;;1.45;0.82;;;;;;;18.79;33.32;98353.19;4175977;84;28613;-85
2021/05/06 15:55:13;;;;;;;1.42;0.80;;;;;;;18.92;33.31;98337.14;4321445;81;28654;-85
2021/05/06 16:01:20;;;;;;;2.08;1.12;;;;;;;18.87;33.57;98327.73;4323785;81;28569;-84
2021/05/06 16:07:23;;;;;;;4.05;1.20;;;;;;;18.55;33.00;98304.95;4339987;81;28643;-85
2021/05/06 16:13:25;;;;;;;1.52;1.00;;;;;;;18.65;32.86;98295.22;4330899;81;28630;-86
2021/05/06 16:19:28;;;;;;;2.85;1.20;;;;;;;18.34;32.90;98309.42;4346981;81;28605;-85
2021/05/06 16:25:31;;;;;;;2.45;1.20;;;;;;;18.75;32.83;98298.28;4333324;81;28629;-85
2021/05/06 16:31:33;;;;;;;1.82;0.93;;;;;;;18.53;33.04;98303.88;4331435;81;28614;-86
2021/05/06 16:37:44;;;;;;;2.12;1.00;;;;;;;19.12;32.27;98288.28;4331372;81;28628;-86
2021/05/06 16:50:01;;;;;;;2.62;1.20;;;;;;;19.42;32.81;98283.25;4322247;81;28630;-82
2021/05/06 16:56:03;;;;;;;3.08;1.12;;;;;;;19.41;32.91;98286.27;4340230;80;28654;-82
2021/05/06 17:02:05;;;;;;;2.35;1.15;;;;;;;19.09;33.22;98280.70;4322122;80;28599;-83
2021/05/06 17:08:08;;;;;;;4.22;1.42;;;;;;;18.81;33.55;98290.27;4344390;80;28633;-84
2021/05/06 17:14:11;;;;;;;3.12;1.60;;;;;;;18.55;34.18;98282.60;4189287;83;28594;-81
2021/05/06 17:20:15;;;;;;;5.15;1.62;;;;;;;18.57;33.47;98276.87;4237481;82;28633;-81
2021/05/06 17:26:17;;;;;;;5.22;1.80;;;;;;;18.49;33.63;98279.75;4180250;83;28628;-83
2021/05/06 17:32:20;;;;;;;3.17;1.75;;;;;;;18.50;34.02;98274.55;4204471;84;28679;-85
2021/05/06 17:38:24;;;;;;;3.72;1.50;;;;;;;18.24;34.54;98275.84;4180887;84;28584;-84
2021/05/06 17:44:26;;;;;;;4.20;1.50;;;;;;;18.20;34.77;98276.75;4194226;84;28667;-84
2021/05/06 17:50:29;;;;;;;2.35;1.27;;;;;;;17.84;35.80;98281.66;4197486;83;28776;-85
2021/05/06 17:56:32;;;;;;;4.72;1.50;;;;;;;17.70;35.52;98268.59;4180838;84;29191;-85
2021/05/06 18:02:40;;;;;;;4.62;1.55;;;;;;;17.68;35.51;98271.60;4188466;84;28636;-86
2021/05/06 18:08:47;;;;;;;2.12;1.00;;;;;;;17.08;36.60;98283.11;4215259;84;28561;-87
2021/05/06 18:14:44;;;;;;;5.40;1.10;;;;;;;17.19;36.72;98294.08;4187344;84;28576;-84
2021/05/06 18:20:46;;;;;;;2.10;1.12;;;;;;;16.96;37.50;98296.53;4186383;84;28610;-85
2021/05/06 18:26:49;;;;;;;4.80;1.20;;;;;;;16.92;37.73;98286.55;4185352;84;28658;-83
2021/05/06 18:32:51;;;;;;;3.98;1.67;;;;;;;16.92;37.60;98292.80;4201216;83;28699;-84
2021/05/06 18:38:54;;;;;;;2.33;1.32;;;;;;;16.55;38.77;98303.25;4191806;83;28618;-83
2021/05/06 18:44:58;;;;;;;3.33;1.30;;;;;;;16.61;38.79;98308.10;4191218;84;28584;-88
2021/05/06 18:51:00;;;;;;;3.02;1.50;;;;;;;16.52;39.20;98309.27;4194946;84;28586;-87
2021/05/06 18:57:05;;;;;;;3.17;1.45;;;;;;;16.28;39.59;98311.95;4200584;84;28675;-87
2021/05/06 19:03:08;;;;;;;3.22;1.82;;;;;;;16.21;39.89;98313.66;4195662;84;28656;-87
2021/05/06 19:09:12;;;;;;;3.80;1.70;;;;;;;16.13;40.27;98306.12;4196277;84;28658;-86
2021/05/06 19:15:14;;;;;;;3.37;1.65;;;;;;;16.08;40.59;98311.05;4195389;84;28601;-83
2021/05/06 19:21:17;;;;;;;4.10;1.70;;;;;;;15.66;41.85;98311.93;4195265;84;28579;-87
2021/05/06 19:27:20;;;;;;;3.35;1.75;;;;;;;15.71;41.88;98316.50;4206229;84;28573;-89
2021/05/06 19:33:22;;;;;;;4.75;1.90;;;;;;;15.53;42.40;98318.00;4190453;84;28582;-87
2021/05/06 19:39:26;;;;;;;4.40;1.55;;;;;;;15.10;44.12;98322.56;4200738;84;28605;-85
2021/05/06 19:45:35;;;;;;;3.90;2.17;;;;;;;15.34;44.22;98329.48;4210834;84;28577;-83
2021/05/06 19:51:37;;;;;;;6.47;1.82;;;;;;;15.48;44.56;98326.41;4178772;84;28604;-83
2021/05/06 19:57:39;;;;;;;3.45;1.57;;;;;;;15.13;46.84;98328.23;4188820;84;28686;-87
2021/05/06 20:03:41;;;;;;;4.35;1.98;;;;;;;15.14;46.50;98320.38;4196859;84;28661;-86
2021/05/06 20:09:44;;;;;;;5.42;2.50;;;;;;;15.22;46.85;98312.77;4186434;84;28595;-89
2021/05/06 20:15:52;;;;;;;7.10;2.98;;;;;;;15.01;47.40;98303.41;4194730;83;28576;-90
2021/05/06 20:21:56;;;;;;;5.92;2.87;;;;;;;15.13;47.79;98301.17;4188421;84;28573;-83
2021/05/06 20:27:59;;;;;;;8.25;3.08;;;;;;;15.25;46.34;98293.25;4198085;84;28654;-86
2021/05/06 20:34:01;;;;;;;7.50;3.05;;;;;;;15.10;47.76;98290.08;4211852;84;28642;-85
2021/05/06 20:40:09;;;;;;;11.97;3.85;;;;;;;14.99;48.25;98276.60;4172519;83;28595;-87
2021/05/06 20:46:10;;;;;;;5.85;2.98;;;;;;;15.07;47.43;98267.64;4197957;84;28577;-85
2021/05/06 20:52:20;;;;;;;5.92;3.02;;;;;;;14.93;48.72;98263.37;4268265;82;28613;-85
2021/05/06 20:58:24;;;;;;;8.33;3.02;;;;;;;14.99;48.41;98263.07;4265736;82;28568;-85
2021/05/06 21:04:26;;;;;;;7.40;3.00;;;;;;;15.19;47.72;98243.17;4276610;82;28620;-84
2021/05/06 21:10:29;;;;;;;7.45;3.05;;;;;;;15.34;47.21;98238.76;4270619;82;28598;-83
2021/05/06 21:16:31;;;;;;;8.48;3.08;;;;;;;15.30;48.40;98222.79;4314426;82;28623;-84
2021/05/06 21:22:36;;;;;;;5.87;2.92;;;;;;;15.44;47.34;98218.90;4316309;82;28921;-84
2021/05/06 21:28:38;;;;;;;6.62;3.02;;;;;;;15.21;48.78;98217.17;4261684;82;28570;-85
2021/05/06 21:34:40;;;;;;;5.87;2.87;;;;;;;15.01;51.90;98202.69;4266541;82;28710;-85
2021/05/06 21:40:43;;;;;;;5.87;2.45;;;;;;;14.82;50.85;98197.14;4267912;82;28593;-86
2021/05/06 21:46:45;;;;;;;6.70;3.10;;;;;;;15.11;49.26;98189.64;4206697;84;28646;-84
2021/05/06 21:52:47;;;;;;;7.00;2.92;;;;;;;14.87;52.85;98182.77;4278958;82;28593;-84
2021/05/06 21:58:51;;;;;;;6.05;2.80;;;;;;;14.92;51.18;98174.59;4346819;80;28575;-85
2021/05/06 22:04:53;;;;;;;5.12;2.65;;;;;;;14.77;54.47;98174.16;4333217;80;28574;-85
2021/05/06 22:10:55;;;;;;;6.92;3.20;;;;;;;14.74;53.18;98167.42;4341465;81;28561;-87
2021/05/06 22:16:57;;;;;;;7.55;2.75;;;;;;;14.59;59.93;98162.06;4315148;80;28591;-86
2021/05/06 22:22:59;;;;;;;6.28;2.90;;;;;;;14.87;53.89;98162.47;4201735;84;28583;-87
2021/05/06 22:29:05;;;;;;;5.53;2.50;;;;;;;14.75;58.30;98162.28;4198613;83;28546;-85
2021/05/06 22:35:08;;;;;;;3.80;1.90;;;;;;;15.12;51.06;98163.37;4208884;82;28573;-85
2021/05/06 22:41:11;;;;;;;4.80;1.90;;;;;;;15.01;51.64;98159.95;4319419;80;28579;-85
2021/05/06 22:47:13;;;;;;;3.98;2.17;;;;;;;14.94;50.40;98160.23;4357337;81;28662;-85
2021/05/06 22:53:15;;;;;;;3.25;2.00;;;;;;;15.02;50.68;98161.00;4324595;81;28617;-85
2021/05/06 22:59:17;;;;;;;3.10;1.47;;;;;;;15.33;50.51;98149.13;4304695;81;28732;-84
2021/05/06 23:05:19;;;;;;;2.47;1.52;;;;;;;15.12;53.88;98151.19;4331596;81;28654;-84
2021/05/06 23:11:22;;;;;;;4.85;1.70;;;;;;;15.40;52.21;98140.67;4197107;84;28586;-84
2021/05/06 23:17:24;;;;;;;4.00;1.75;;;;;;;14.99;62.65;98141.80;4216088;83;28615;-84
2021/05/06 23:23:27;;;;;;;4.12;1.95;;;;;;;14.76;63.92;98132.78;4342569;81;28601;-84
2021/05/06 23:29:29;;;;;;;2.92;1.60;;;;;;;14.86;71.11;98122.41;4317046;81;28555;-82
2021/05/06 23:35:31;;;;;;;4.08;1.98;;;;;;;14.95;78.26;98117.23;4322136;81;28584;-83
2021/05/06 23:41:33;;;;;;;4.47;1.90;;;;;;;15.15;68.04;98126.25;4333041;81;28574;-84
2021/05/06 23:47:36;;;;;;;4.47;1.95;;;;;;;15.08;76.44;98121.16;4346516;81;28672;-84
2021/05/06 23:53:38;;;;;;;2.77;1.60;;;;;;;14.87;81.46;98121.88;4308644;81;28621;-84
2021/05/06 23:59:40;;;;;;;3.72;1.80;;;;;;;14.77;80.03;98114.62;4352288;80;28644;-84
